createdAt,value
2023-01-23T00:02:11.302Z,27.33
2023-01-23T00:07:13.044Z,31.13
2023-01-23T00:12:14.684Z,37.13
2023-01-23T00:17:16.301Z,32.60
2023-01-23T00:22:18.055Z,33.50
2023-01-23T00:27:19.662Z,28.92
2023-01-23T00:32:21.281Z,30.55
2023-01-23T00:37:22.914Z,28.95
2023-01-23T00:42:24.576Z,31.35
2023-01-23T00:47:26.229Z,34.67
2023-01-23T00:52:28.151Z,31.20
2023-01-23T00:57:30.439Z,34.70
2023-01-23T01:02:32.134Z,38.57
2023-01-23T01:07:33.832Z,34.90
2023-01-23T01:12:35.489Z,33.30
2023-01-23T01:17:38.856Z,37.45
2023-01-23T01:22:40.489Z,35.65
2023-01-23T01:27:42.133Z,38.40
2023-01-23T01:32:44.743Z,39.43
2023-01-23T01:37:49.186Z,35.00
2023-01-23T01:43:02.914Z,33.90
2023-01-23T01:48:05.799Z,35.65
2023-01-23T01:53:07.487Z,29.27
2023-01-23T01:58:09.362Z,34.67
2023-01-23T02:03:11.513Z,31.13
2023-01-23T02:08:35.680Z,34.53
2023-01-23T02:13:39.975Z,36.42
2023-01-23T02:18:47.297Z,32.35
2023-01-23T02:24:08.249Z,30.20
2023-01-23T02:29:11.196Z,29.05
2023-01-23T02:34:22.421Z,31.63
2023-01-23T02:39:25.719Z,34.97
2023-01-23T02:44:33.892Z,30.55
2023-01-23T02:49:39.433Z,33.83
2023-01-23T02:54:42.683Z,35.63
2023-01-23T03:00:03.462Z,33.83
2023-01-23T03:05:08.766Z,33.72
2023-01-23T03:10:11.909Z,37.57
2023-01-23T03:15:17.156Z,29.00
2023-01-23T03:20:20.169Z,35.20
2023-01-23T03:25:22.089Z,33.35
2023-01-23T03:30:25.575Z,33.25
2023-01-23T03:35:28.392Z,29.13
2023-01-23T03:40:49.404Z,31.25
2023-01-23T03:45:54.472Z,32.35
2023-01-23T03:50:56.983Z,32.92
2023-01-23T03:55:59.360Z,35.53
2023-01-23T04:01:03.549Z,37.30
2023-01-23T04:06:08.962Z,40.55
2023-01-23T04:11:12.866Z,31.92
2023-01-23T04:16:16.732Z,33.05
2023-01-23T04:21:18.643Z,32.78
2023-01-23T04:26:20.587Z,32.83
2023-01-23T04:31:22.627Z,32.72
2023-01-23T04:36:25.043Z,28.80
2023-01-23T04:41:30.054Z,34.15
2023-01-23T04:46:39.069Z,28.23
2023-01-23T04:51:48.076Z,37.47
2023-01-23T04:56:51.612Z,31.17
2023-01-23T05:01:55.238Z,36.15
2023-01-23T05:06:57.213Z,31.52
2023-01-23T05:11:58.944Z,33.70
2023-01-23T05:17:02.359Z,29.38
2023-01-23T05:22:08.157Z,31.95
2023-01-23T05:27:10.124Z,30.40
2023-01-23T05:32:15.000Z,35.75
2023-01-23T05:37:25.910Z,31.45
2023-01-23T05:42:31.675Z,30.38
2023-01-23T05:47:52.387Z,40.17
2023-01-23T05:52:54.058Z,33.63
2023-01-23T05:57:56.315Z,35.53
2023-01-23T06:03:00.783Z,34.88
2023-01-23T06:08:21.119Z,27.65
2023-01-23T06:13:25.563Z,33.85
2023-01-23T06:18:27.460Z,46.03
2023-01-23T06:23:29.250Z,35.78
2023-01-23T06:28:33.785Z,35.70
2023-01-23T06:33:38.889Z,32.95
2023-01-23T06:38:44.268Z,35.97
2023-01-23T06:43:48.050Z,32.20
2023-01-23T06:48:55.529Z,30.67
2023-01-23T06:53:58.106Z,31.42
2023-01-23T06:59:00.509Z,34.70
2023-01-23T07:04:11.178Z,28.63
2023-01-23T07:09:14.501Z,35.08
2023-01-23T07:14:20.276Z,38.25
2023-01-23T07:19:26.885Z,35.53
2023-01-23T07:24:31.720Z,31.92
2023-01-23T07:29:33.312Z,36.63
2023-01-23T07:34:35.072Z,35.42
2023-01-23T07:39:36.665Z,35.15
2023-01-23T07:44:38.268Z,33.20
2023-01-23T07:49:39.876Z,35.33
2023-01-23T07:54:41.487Z,34.38
2023-01-23T07:59:43.109Z,35.33
2023-01-23T08:04:44.771Z,34.25
2023-01-23T08:09:46.363Z,38.97
2023-01-23T08:14:48.057Z,54.67
2023-01-23T08:19:49.688Z,45.25
2023-01-23T08:24:51.557Z,42.13
2023-01-23T08:29:53.185Z,38.20
2023-01-23T08:34:55.444Z,38.80
2023-01-23T08:39:57.032Z,40.85
2023-01-23T08:44:58.624Z,38.35
2023-01-23T08:50:00.207Z,44.10
2023-01-23T08:55:01.990Z,40.20
2023-01-23T09:00:04.437Z,41.28
2023-01-23T09:05:06.498Z,41.08
2023-01-23T09:10:08.956Z,38.22
2023-01-23T09:15:11.250Z,41.25
2023-01-23T09:20:12.912Z,43.88
2023-01-23T09:25:14.560Z,33.90
2023-01-23T09:30:16.732Z,35.60
2023-01-23T09:35:18.318Z,34.90
2023-01-23T09:40:23.173Z,40.60
2023-01-23T09:45:27.560Z,38.38
2023-01-23T09:50:33.425Z,40.85
2023-01-23T09:55:52.141Z,35.92
2023-01-23T10:00:54.062Z,45.63
2023-01-23T10:06:12.781Z,40.47
2023-01-23T10:11:51.661Z,43.05
2023-01-23T10:17:12.210Z,38.10
2023-01-23T10:22:33.582Z,36.97
2023-01-23T10:27:43.303Z,42.20
2023-01-23T10:33:02.711Z,43.10
2023-01-23T10:38:23.115Z,42.70
2023-01-23T10:43:26.563Z,37.58
2023-01-23T10:48:32.133Z,43.75
2023-01-23T10:53:33.780Z,44.67
2023-01-23T10:58:41.074Z,42.40
2023-01-23T11:03:45.538Z,39.60
2023-01-23T11:09:01.078Z,38.67
2023-01-23T11:14:05.435Z,39.50
2023-01-23T11:19:10.216Z,37.92
2023-01-23T11:24:41.059Z,38.50
2023-01-23T11:30:17.182Z,38.15
2023-01-23T11:35:25.427Z,38.80
2023-01-23T11:40:27.083Z,36.63
2023-01-23T11:45:55.298Z,34.28
2023-01-23T11:51:25.359Z,36.28
2023-01-23T11:56:43.926Z,39.88
2023-01-23T12:02:22.327Z,36.08
2023-01-23T12:07:25.071Z,36.08
2023-01-23T12:12:45.387Z,34.25
2023-01-23T12:17:52.143Z,36.05
2023-01-23T12:23:16.765Z,31.60
2023-01-23T12:28:24.001Z,27.38
2023-01-23T12:33:45.401Z,26.75
2023-01-23T12:39:07.016Z,30.83
2023-01-23T12:44:15.570Z,39.25
2023-01-23T12:49:29.661Z,34.22
2023-01-23T12:54:55.875Z,37.85
2023-01-23T13:00:07.789Z,45.88
2023-01-23T13:05:21.487Z,37.92
2023-01-23T13:10:52.414Z,39.65
2023-01-23T13:16:10.779Z,40.13
2023-01-23T13:21:31.032Z,43.67
2023-01-23T13:26:32.813Z,48.08
2023-01-23T13:31:50.191Z,44.70
2023-01-23T13:36:54.809Z,43.20
2023-01-23T13:42:14.943Z,44.42
2023-01-23T14:20:54.497Z,51.03
2023-01-23T14:25:57.190Z,50.53
2023-01-23T14:31:02.626Z,65.90
2023-01-23T14:36:04.651Z,65.32
2023-01-23T14:41:07.554Z,68.03
2023-01-23T14:46:22.335Z,74.68
2023-01-23T14:51:26.960Z,74.53
2023-01-23T14:56:39.592Z,65.87
2023-01-23T15:01:41.362Z,67.83
2023-01-23T15:06:43.095Z,81.78
2023-01-23T15:11:45.522Z,80.35
2023-01-23T15:16:47.261Z,81.43
2023-01-23T15:21:48.973Z,77.97
2023-01-23T15:27:06.319Z,82.07
2023-01-23T15:32:19.991Z,85.97
2023-01-23T15:37:27.926Z,83.37
2023-01-23T15:42:32.906Z,86.60
2023-01-23T15:47:34.985Z,75.40
2023-01-23T15:52:48.549Z,87.47
2023-01-23T15:57:52.192Z,88.68
2023-01-23T16:02:57.124Z,92.07
2023-01-23T16:08:02.566Z,94.47
2023-01-23T16:13:05.049Z,88.73
2023-01-23T16:18:07.215Z,88.43
2023-01-23T16:23:18.476Z,118.90
2023-01-23T16:28:22.718Z,95.10
2023-01-23T16:33:24.516Z,80.40
2023-01-23T16:38:28.982Z,84.13
2023-01-23T16:43:30.612Z,90.15
2023-01-23T16:48:32.295Z,97.43
2023-01-23T16:53:44.538Z,83.80
2023-01-23T16:58:46.208Z,86.37
2023-01-23T17:03:55.732Z,84.03
2023-01-23T17:08:57.410Z,84.07
2023-01-23T17:14:02.791Z,91.60
2023-01-23T17:19:10.607Z,83.17
2023-01-23T17:24:17.371Z,82.20
2023-01-23T17:29:20.035Z,80.03
2023-01-23T17:34:29.283Z,76.68
2023-01-23T17:39:30.977Z,84.43
2023-01-23T17:44:32.588Z,67.13
2023-01-23T17:49:34.436Z,67.73
2023-01-23T17:54:37.524Z,71.05
2023-01-23T17:59:39.194Z,71.00
2023-01-23T18:04:40.893Z,66.15
2023-01-23T18:09:42.631Z,65.78
2023-01-23T18:14:56.383Z,64.47
2023-01-23T18:19:58.209Z,64.85
2023-01-23T18:25:00.095Z,63.40
2023-01-23T18:30:31.232Z,62.37
2023-01-23T18:36:15.173Z,56.05
2023-01-23T18:41:22.876Z,55.50
2023-01-23T18:46:25.285Z,59.35
2023-01-23T18:51:26.958Z,64.77
2023-01-23T18:56:47.391Z,66.10
2023-01-23T19:02:11.083Z,56.95
2023-01-23T19:07:21.125Z,56.97
2023-01-23T19:12:49.040Z,54.70
2023-01-23T19:18:16.103Z,65.03
2023-01-23T19:23:26.510Z,58.80
2023-01-23T19:28:28.302Z,55.00
2023-01-23T19:33:29.953Z,67.67
2023-01-23T19:38:31.538Z,71.37
2023-01-23T19:43:33.151Z,59.57
2023-01-23T19:48:34.822Z,66.33
2023-01-23T19:53:36.641Z,68.53
2023-01-23T19:58:38.469Z,68.33
2023-01-23T20:03:41.189Z,62.07
2023-01-23T20:08:43.070Z,61.23
2023-01-23T20:13:44.921Z,71.37
2023-01-23T20:18:48.228Z,73.57
2023-01-23T20:23:50.563Z,68.60
2023-01-23T20:28:53.458Z,74.80
2023-01-23T20:33:55.081Z,72.75
2023-01-23T20:38:56.955Z,73.37
2023-01-23T20:43:58.602Z,76.63
2023-01-23T20:49:01.647Z,74.17
2023-01-23T20:54:03.276Z,74.77
2023-01-23T20:59:21.459Z,74.27
2023-01-23T21:04:25.264Z,65.70
2023-01-23T21:09:27.411Z,79.73
2023-01-23T21:14:29.519Z,77.30
2023-01-23T21:19:32.855Z,75.20
2023-01-23T21:24:36.134Z,74.50
2023-01-23T21:29:38.509Z,74.40
2023-01-23T21:34:40.152Z,89.90
2023-01-23T21:39:41.778Z,81.37
2023-01-23T21:44:43.382Z,77.03
2023-01-23T21:49:44.996Z,75.00
2023-01-23T21:54:46.641Z,81.75
2023-01-23T22:00:08.249Z,82.40
2023-01-23T22:05:15.494Z,78.65
2023-01-23T22:10:17.172Z,94.60
2023-01-23T22:15:19.178Z,81.45
2023-01-23T22:20:21.080Z,80.50
2023-01-23T22:25:23.144Z,84.37
2023-01-23T22:30:24.965Z,75.75
2023-01-23T22:35:26.575Z,91.03
2023-01-23T22:40:28.185Z,95.32
2023-01-23T22:45:29.914Z,87.53
2023-01-23T22:50:31.538Z,86.63
2023-01-23T22:55:33.157Z,95.60
2023-01-23T23:00:34.751Z,91.30
2023-01-23T23:05:36.398Z,91.80
2023-01-23T23:10:37.998Z,96.70
2023-01-23T23:15:39.598Z,89.00
2023-01-23T23:20:41.223Z,94.00
2023-01-23T23:25:42.895Z,94.50
2023-01-23T23:30:44.487Z,92.70
2023-01-23T23:35:46.260Z,88.53
2023-01-23T23:40:58.569Z,97.57
2023-01-23T23:46:02.611Z,89.03
2023-01-23T23:51:07.484Z,86.37
2023-01-23T23:56:16.914Z,88.97
